Time;durP1;ratioP1;P1;durP2;ratioP2;P2;SDS_P1;SDS_P2;PMS_P1;PMS_P2;Temp;Humidity;BMP_temperature;BMP_pressure;BME280_temperature;BME280_humidity;BME280_pressure;Samples;Min_cycle;Max_cycle;Signal;HPM_P1;HPM_P2
2023/10/19 00:00:50;;;;;;;5.90;4.70;;;;;;;;;;5006594;28;20507;-57
2023/10/19 00:03:18;;;;;;;6.55;4.70;;;;;;;;;;5004230;28;20822;-57
2023/10/19 00:05:47;;;;;;;5.78;4.60;;;;;;;;;;5003658;28;20576;-57
2023/10/19 00:08:16;;;;;;;6.40;4.63;;;;;;;;;;5003747;28;20034;-57
2023/10/19 00:10:48;;;;;;;5.45;4.40;;;;;;;;;;5003291;28;20030;-57
2023/10/19 00:13:13;;;;;;;5.00;4.30;;;;;;;;;;5003573;28;20419;-57
2023/10/19 00:15:48;;;;;;;5.65;4.45;;;;;;;;;;5006224;28;20034;-57
2023/10/19 00:23:13;;;;;;;5.63;4.50;;;;;;;;;;5008936;28;20065;-57
2023/10/19 00:25:41;;;;;;;5.43;4.38;;;;;;;;;;5007680;28;20125;-57
2023/10/19 00:28:06;;;;;;;5.15;4.35;;;;;;;;;;5008612;28;20065;-58
2023/10/19 00:30:35;;;;;;;6.10;4.60;;;;;;;;;;5007214;28;20061;-57
2023/10/19 00:33:03;;;;;;;6.30;5.10;;;;;;;;;;5000721;28;20119;-58
2023/10/19 00:35:34;;;;;;;5.75;4.40;;;;;;;;;;5013755;28;20049;-58
2023/10/19 00:38:21;;;;;;;6.45;4.65;;;;;;;;;;5007424;28;20437;-57
2023/10/19 00:40:53;;;;;;;6.55;4.72;;;;;;;;;;5006353;28;20045;-58
2023/10/19 00:43:28;;;;;;;5.70;4.38;;;;;;;;;;5006481;28;20042;-58
2023/10/19 00:45:54;;;;;;;5.05;4.25;;;;;;;;;;5000574;28;20100;-57
2023/10/19 00:48:23;;;;;;;5.40;4.38;;;;;;;;;;4997022;28;20439;-57
2023/10/19 00:50:52;;;;;;;5.25;4.03;;;;;;;;;;5006926;28;20034;-58
2023/10/19 00:53:18;;;;;;;6.38;4.70;;;;;;;;;;5008045;28;20072;-58
2023/10/19 00:55:44;;;;;;;5.27;4.10;;;;;;;;;;5007554;28;20066;-58
2023/10/19 00:58:09;;;;;;;5.35;4.20;;;;;;;;;;5007233;28;20832;-58
2023/10/19 01:00:43;;;;;;;4.30;3.85;;;;;;;;;;4991769;28;20031;-57
2023/10/19 01:03:09;;;;;;;5.40;4.22;;;;;;;;;;4987345;28;20050;-57
2023/10/19 01:05:37;;;;;;;5.57;4.28;;;;;;;;;;4996839;28;20022;-57
2023/10/19 01:08:13;;;;;;;5.35;4.13;;;;;;;;;;5014244;28;20441;-58
2023/10/19 01:10:39;;;;;;;5.60;4.32;;;;;;;;;;5006847;28;20028;-58
2023/10/19 01:13:05;;;;;;;5.63;4.32;;;;;;;;;;5007856;28;20463;-58
2023/10/19 01:15:32;;;;;;;5.00;4.05;;;;;;;;;;4999532;28;20034;-57
2023/10/19 01:17:57;;;;;;;5.15;3.90;;;;;;;;;;5000823;28;20117;-57
2023/10/19 01:20:33;;;;;;;5.22;4.15;;;;;;;;;;5001134;28;20125;-58
2023/10/19 01:28:42;;;;;;;4.68;3.97;;;;;;;;;;5006706;28;20084;-58
2023/10/19 01:31:22;;;;;;;5.13;4.10;;;;;;;;;;5007389;28;20037;-58
2023/10/19 01:33:47;;;;;;;5.13;3.95;;;;;;;;;;5007478;28;20540;-58
2023/10/19 01:38:47;;;;;;;5.20;4.00;;;;;;;;;;4999922;28;20038;-57
2023/10/19 01:41:18;;;;;;;5.38;4.32;;;;;;;;;;5006751;28;20038;-58
2023/10/19 01:43:44;;;;;;;5.32;4.28;;;;;;;;;;5005930;28;20056;-58
2023/10/19 01:46:13;;;;;;;5.63;4.20;;;;;;;;;;5010223;28;20523;-58
2023/10/19 01:48:40;;;;;;;4.45;3.55;;;;;;;;;;5007707;28;20041;-57
2023/10/19 01:51:05;;;;;;;5.00;4.10;;;;;;;;;;5006880;28;20447;-57
2023/10/19 01:53:31;;;;;;;6.93;3.97;;;;;;;;;;5006022;28;20050;-57
2023/10/19 01:55:59;;;;;;;4.63;3.90;;;;;;;;;;5005847;28;20085;-57
2023/10/19 01:58:25;;;;;;;4.60;3.90;;;;;;;;;;5006576;28;20038;-57
2023/10/19 02:00:54;;;;;;;5.10;4.07;;;;;;;;;;5006642;28;20080;-57
2023/10/19 02:03:20;;;;;;;4.72;3.95;;;;;;;;;;4997228;28;20065;-57
2023/10/19 02:05:49;;;;;;;4.05;3.60;;;;;;;;;;5001061;28;20034;-57
2023/10/19 02:08:16;;;;;;;4.63;3.53;;;;;;;;;;5006077;28;20084;-57
2023/10/19 02:10:45;;;;;;;5.65;4.00;;;;;;;;;;5006567;28;20104;-58
2023/10/19 02:13:10;;;;;;;4.65;3.72;;;;;;;;;;5006951;28;20050;-59
2023/10/19 02:15:36;;;;;;;4.78;3.75;;;;;;;;;;5004043;28;20109;-57
2023/10/19 02:18:02;;;;;;;4.47;3.80;;;;;;;;;;5005469;28;20104;-58
2023/10/19 02:20:28;;;;;;;4.13;3.72;;;;;;;;;;5006059;28;20072;-57
2023/10/19 02:22:54;;;;;;;4.40;3.47;;;;;;;;;;5008649;28;20030;-57
2023/10/19 02:25:21;;;;;;;4.93;3.97;;;;;;;;;;5004462;28;20097;-57
2023/10/19 02:27:46;;;;;;;5.22;4.10;;;;;;;;;;5006538;28;20018;-57
2023/10/19 02:30:12;;;;;;;4.68;3.67;;;;;;;;;;5004047;28;20045;-57
2023/10/19 02:32:37;;;;;;;5.40;3.92;;;;;;;;;;5006484;28;20029;-58
2023/10/19 02:35:02;;;;;;;4.47;3.70;;;;;;;;;;4993979;28;20037;-56
2023/10/19 02:37:28;;;;;;;4.43;3.55;;;;;;;;;;5006078;28;20276;-57
2023/10/19 02:39:53;;;;;;;4.55;3.70;;;;;;;;;;5007325;28;20137;-57
2023/10/19 02:42:21;;;;;;;4.43;3.17;;;;;;;;;;4996808;28;20217;-57
2023/10/19 02:44:47;;;;;;;4.75;3.72;;;;;;;;;;4996226;28;20684;-57
2023/10/19 02:47:12;;;;;;;4.57;3.60;;;;;;;;;;4996506;28;20022;-58
2023/10/19 02:49:43;;;;;;;4.37;3.40;;;;;;;;;;4997032;28;20112;-58
2023/10/19 02:52:10;;;;;;;5.07;4.10;;;;;;;;;;5006125;28;20300;-58
2023/10/19 02:54:36;;;;;;;4.05;3.65;;;;;;;;;;5005067;28;20044;-58
2023/10/19 02:57:02;;;;;;;5.63;3.60;;;;;;;;;;4994509;28;20082;-58
2023/10/19 02:59:28;;;;;;;4.50;3.50;;;;;;;;;;5015775;28;20545;-58
2023/10/19 03:04:38;;;;;;;4.38;3.63;;;;;;;;;;5005511;28;20068;-57
2023/10/19 03:07:04;;;;;;;4.78;3.70;;;;;;;;;;4995321;28;20038;-58
2023/10/19 03:09:29;;;;;;;5.50;3.95;;;;;;;;;;4993140;28;20033;-58
2023/10/19 03:11:59;;;;;;;4.53;3.75;;;;;;;;;;4985996;28;20490;-58
2023/10/19 03:14:25;;;;;;;5.18;3.95;;;;;;;;;;4994059;28;20081;-58
2023/10/19 03:16:50;;;;;;;4.70;3.55;;;;;;;;;;5008404;28;20068;-58
2023/10/19 03:19:15;;;;;;;4.90;3.85;;;;;;;;;;5017433;28;20044;-57
2023/10/19 03:21:44;;;;;;;5.03;3.70;;;;;;;;;;5005291;28;20046;-57
2023/10/19 03:24:13;;;;;;;4.93;3.92;;;;;;;;;;4994324;28;20311;-58
2023/10/19 03:26:48;;;;;;;3.97;3.50;;;;;;;;;;5004443;28;20072;-58
2023/10/19 03:29:14;;;;;;;4.72;3.75;;;;;;;;;;5005002;28;20037;-58
2023/10/19 03:31:47;;;;;;;4.55;3.45;;;;;;;;;;5005099;28;20042;-58
2023/10/19 03:34:12;;;;;;;4.20;3.40;;;;;;;;;;5003507;28;20096;-57
2023/10/19 03:36:38;;;;;;;5.28;3.60;;;;;;;;;;5005803;28;20049;-57
2023/10/19 03:39:11;;;;;;;4.63;3.58;;;;;;;;;;4987622;28;20148;-57
2023/10/19 03:41:36;;;;;;;4.60;3.55;;;;;;;;;;5005118;28;20045;-57
2023/10/19 03:44:03;;;;;;;4.18;3.72;;;;;;;;;;5006551;28;20033;-57
2023/10/19 03:46:28;;;;;;;3.85;3.45;;;;;;;;;;4989464;28;20141;-57
2023/10/19 03:48:58;;;;;;;4.47;3.55;;;;;;;;;;4995090;28;20550;-58
2023/10/19 03:51:26;;;;;;;4.43;3.65;;;;;;;;;;4997250;28;20057;-57
2023/10/19 03:53:58;;;;;;;4.72;3.63;;;;;;;;;;5004867;28;20097;-57
2023/10/19 03:56:24;;;;;;;4.43;3.47;;;;;;;;;;5003138;28;20177;-57
2023/10/19 03:58:50;;;;;;;3.92;3.40;;;;;;;;;;4986024;28;20113;-58
2023/10/19 04:01:16;;;;;;;4.88;3.67;;;;;;;;;;5003636;28;20034;-58
2023/10/19 04:03:43;;;;;;;4.32;3.35;;;;;;;;;;5006111;28;20038;-57
2023/10/19 04:06:13;;;;;;;4.53;3.45;;;;;;;;;;5002716;28;20104;-58
2023/10/19 04:08:38;;;;;;;4.10;3.50;;;;;;;;;;5004902;28;20062;-58
2023/10/19 04:11:21;;;;;;;4.40;3.50;;;;;;;;;;5002503;28;20042;-58
2023/10/19 04:13:47;;;;;;;4.88;3.97;;;;;;;;;;5001811;28;20165;-57
2023/10/19 04:16:12;;;;;;;4.30;3.20;;;;;;;;;;5002609;28;20534;-58
2023/10/19 04:18:38;;;;;;;4.63;3.80;;;;;;;;;;5003656;28;20100;-58
2023/10/19 04:21:04;;;;;;;3.70;3.20;;;;;;;;;;4995278;28;20836;-58
2023/10/19 04:23:34;;;;;;;5.60;3.70;;;;;;;;;;4995817;28;20041;-58
2023/10/19 04:26:04;;;;;;;4.25;3.60;;;;;;;;;;4995974;28;20070;-57
2023/10/19 04:28:41;;;;;;;4.88;3.83;;;;;;;;;;4995402;28;20117;-58
2023/10/19 04:31:07;;;;;;;3.97;3.30;;;;;;;;;;5009942;28;20034;-58
2023/10/19 04:33:33;;;;;;;4.03;3.53;;;;;;;;;;4995851;28;20477;-58
2023/10/19 04:36:00;;;;;;;4.10;3.30;;;;;;;;;;4995171;28;20491;-58
2023/10/19 04:38:26;;;;;;;5.10;3.45;;;;;;;;;;4994912;28;20033;-58
2023/10/19 04:40:52;;;;;;;8.02;6.70;;;;;;;;;;4994018;28;20041;-58
2023/10/19 04:43:17;;;;;;;6.90;4.05;;;;;;;;;;4991334;28;20026;-58
2023/10/19 04:45:44;;;;;;;4.03;3.33;;;;;;;;;;4995247;28;20021;-58
2023/10/19 04:48:10;;;;;;;6.65;3.92;;;;;;;;;;4994939;28;22297;-57
2023/10/19 04:50:35;;;;;;;4.72;3.40;;;;;;;;;;4995874;28;20431;-58
2023/10/19 04:53:00;;;;;;;3.97;3.47;;;;;;;;;;4999360;28;20060;-58
2023/10/19 04:55:25;;;;;;;4.67;3.60;;;;;;;;;;4995593;28;20038;-58
2023/10/19 04:57:52;;;;;;;6.65;3.53;;;;;;;;;;4997069;28;20693;-57
2023/10/19 05:00:17;;;;;;;5.37;3.40;;;;;;;;;;4999700;28;20121;-57
2023/10/19 05:02:42;;;;;;;4.47;3.55;;;;;;;;;;4998570;28;20293;-57
2023/10/19 05:05:08;;;;;;;3.97;3.20;;;;;;;;;;5000572;28;20490;-57
2023/10/19 05:07:34;;;;;;;4.68;3.58;;;;;;;;;;5000789;28;20300;-58
2023/10/19 05:09:59;;;;;;;4.38;3.25;;;;;;;;;;5000354;28;20113;-57
2023/10/19 05:12:24;;;;;;;4.05;3.25;;;;;;;;;;4998985;28;20049;-58
2023/10/19 05:14:50;;;;;;;4.35;3.58;;;;;;;;;;4998478;28;20132;-58
2023/10/19 05:17:15;;;;;;;4.38;3.53;;;;;;;;;;4999511;28;20411;-56
2023/10/19 05:19:40;;;;;;;4.07;3.17;;;;;;;;;;4996181;28;20053;-59
2023/10/19 05:22:07;;;;;;;4.33;3.40;;;;;;;;;;4997363;28;20502;-57
2023/10/19 05:24:32;;;;;;;4.88;3.75;;;;;;;;;;4999634;28;20284;-57
2023/10/19 05:26:57;;;;;;;4.85;3.15;;;;;;;;;;4999420;28;20046;-58
2023/10/19 05:29:25;;;;;;;4.13;3.00;;;;;;;;;;4999883;28;20051;-57
2023/10/19 05:31:53;;;;;;;4.80;3.40;;;;;;;;;;4991806;28;20111;-57
2023/10/19 05:34:21;;;;;;;3.95;3.25;;;;;;;;;;4998814;28;20049;-58
2023/10/19 05:36:48;;;;;;;3.63;3.00;;;;;;;;;;4999837;28;20045;-59
2023/10/19 05:39:14;;;;;;;4.05;3.15;;;;;;;;;;4999615;28;20168;-58
2023/10/19 05:41:39;;;;;;;4.22;3.33;;;;;;;;;;4998999;28;20138;-59
2023/10/19 05:44:05;;;;;;;5.25;3.55;;;;;;;;;;4998928;28;20478;-58
2023/10/19 05:46:31;;;;;;;3.78;3.22;;;;;;;;;;4996609;28;20593;-58
2023/10/19 05:48:57;;;;;;;3.45;2.88;;;;;;;;;;4997869;28;20069;-58
2023/10/19 05:51:23;;;;;;;3.60;2.88;;;;;;;;;;4998510;28;20065;-57
2023/10/19 05:53:48;;;;;;;4.47;3.20;;;;;;;;;;4998075;28;20050;-59
2023/10/19 05:56:14;;;;;;;3.35;2.83;;;;;;;;;;4998708;28;20109;-59
2023/10/19 05:58:39;;;;;;;4.07;3.40;;;;;;;;;;4996809;28;20467;-58
2023/10/19 06:01:06;;;;;;;4.93;2.95;;;;;;;;;;4995567;28;20038;-58
2023/10/19 06:03:31;;;;;;;4.32;3.28;;;;;;;;;;4995929;28;20556;-58
2023/10/19 06:05:56;;;;;;;4.25;3.20;;;;;;;;;;4998925;28;20498;-58
2023/10/19 06:08:22;;;;;;;4.15;3.10;;;;;;;;;;4999039;28;20087;-58
2023/10/19 06:10:53;;;;;;;5.40;3.17;;;;;;;;;;4999693;28;20036;-58
2023/10/19 06:13:19;;;;;;;4.78;3.38;;;;;;;;;;5001170;28;20695;-58
2023/10/19 06:15:44;;;;;;;4.70;3.45;;;;;;;;;;4999478;28;20682;-57
2023/10/19 06:18:10;;;;;;;4.93;2.90;;;;;;;;;;4997781;28;20428;-58
2023/10/19 06:20:36;;;;;;;4.97;3.30;;;;;;;;;;4999947;28;20117;-58
2023/10/19 06:23:04;;;;;;;4.75;2.80;;;;;;;;;;4999611;28;20125;-58
2023/10/19 06:25:29;;;;;;;5.22;3.20;;;;;;;;;;4993026;28;20042;-57
2023/10/19 06:27:57;;;;;;;4.30;3.10;;;;;;;;;;4997307;28;20041;-58
2023/10/19 06:30:22;;;;;;;4.47;2.80;;;;;;;;;;4998036;28;20040;-57
2023/10/19 06:32:51;;;;;;;4.55;2.88;;;;;;;;;;4996220;28;20054;-58
2023/10/19 06:35:17;;;;;;;4.45;2.60;;;;;;;;;;4996402;28;20064;-58
2023/10/19 06:37:43;;;;;;;3.85;2.88;;;;;;;;;;4997068;28;20537;-58
2023/10/19 06:40:11;;;;;;;4.50;2.72;;;;;;;;;;5016044;28;20053;-58
2023/10/19 06:42:36;;;;;;;3.55;2.78;;;;;;;;;;4977365;28;20085;-58
2023/10/19 06:45:02;;;;;;;3.97;3.30;;;;;;;;;;4977391;28;20526;-57
2023/10/19 06:47:28;;;;;;;6.68;3.03;;;;;;;;;;4997642;28;20061;-58
2023/10/19 06:49:54;;;;;;;4.30;3.10;;;;;;;;;;4981417;28;20048;-58
2023/10/19 06:52:19;;;;;;;4.13;3.20;;;;;;;;;;4998844;28;20041;-58
2023/10/19 06:54:45;;;;;;;5.20;2.85;;;;;;;;;;4998266;28;20069;-57
2023/10/19 06:57:10;;;;;;;4.00;3.00;;;;;;;;;;4996408;28;20077;-57
2023/10/19 06:59:36;;;;;;;4.55;3.17;;;;;;;;;;4997647;28;20113;-58
2023/10/19 07:02:01;;;;;;;3.67;2.75;;;;;;;;;;4991966;28;20037;-57
2023/10/19 07:04:28;;;;;;;3.70;2.95;;;;;;;;;;4998564;28;20034;-57
2023/10/19 07:06:53;;;;;;;3.90;2.80;;;;;;;;;;5019253;28;20038;-58
2023/10/19 07:09:19;;;;;;;4.75;3.17;;;;;;;;;;5003708;28;20034;-58
2023/10/19 07:11:44;;;;;;;3.83;3.20;;;;;;;;;;4997351;28;20070;-58
2023/10/19 07:14:10;;;;;;;3.97;2.75;;;;;;;;;;4975461;28;20602;-57
2023/10/19 07:16:36;;;;;;;3.95;3.15;;;;;;;;;;5002314;28;20026;-57
2023/10/19 07:19:01;;;;;;;4.20;2.90;;;;;;;;;;4997923;28;20104;-58
2023/10/19 07:21:29;;;;;;;4.25;3.30;;;;;;;;;;5004272;28;20034;-58
2023/10/19 07:23:55;;;;;;;3.65;2.97;;;;;;;;;;4996891;28;20042;-58
2023/10/19 07:26:30;;;;;;;5.70;3.00;;;;;;;;;;4997839;28;20472;-58
2023/10/19 07:28:55;;;;;;;4.07;3.30;;;;;;;;;;5000647;28;20077;-58
2023/10/19 07:31:21;;;;;;;3.67;2.75;;;;;;;;;;5002690;28;20038;-58
2023/10/19 07:33:47;;;;;;;4.40;2.95;;;;;;;;;;5000165;28;20049;-58
2023/10/19 07:36:14;;;;;;;3.92;2.95;;;;;;;;;;5001916;28;20120;-58
2023/10/19 07:38:39;;;;;;;5.40;3.30;;;;;;;;;;5003625;28;20046;-58
2023/10/19 07:41:05;;;;;;;3.83;3.08;;;;;;;;;;5005099;28;20072;-58
2023/10/19 07:43:31;;;;;;;3.95;3.35;;;;;;;;;;4985849;28;20388;-58
2023/10/19 07:45:56;;;;;;;4.97;3.22;;;;;;;;;;5001481;28;20064;-58
2023/10/19 07:48:21;;;;;;;4.47;3.10;;;;;;;;;;5002384;28;20038;-58
2023/10/19 07:50:47;;;;;;;5.93;3.17;;;;;;;;;;4998738;28;20199;-57
2023/10/19 07:53:12;;;;;;;3.83;3.00;;;;;;;;;;5012910;28;20156;-58
2023/10/19 07:55:38;;;;;;;4.00;2.70;;;;;;;;;;5000543;28;20038;-58
2023/10/19 07:58:04;;;;;;;3.97;3.20;;;;;;;;;;4996594;28;20038;-59
2023/10/19 08:00:29;;;;;;;5.63;3.25;;;;;;;;;;5015978;28;20034;-59
2023/10/19 08:02:55;;;;;;;3.47;2.65;;;;;;;;;;4989980;28;20527;-57
2023/10/19 08:05:20;;;;;;;4.38;3.17;;;;;;;;;;5000236;28;20065;-59
2023/10/19 08:07:48;;;;;;;4.20;3.00;;;;;;;;;;4998358;28;20030;-57
2023/10/19 08:10:17;;;;;;;3.38;2.83;;;;;;;;;;5000692;28;20521;-57
2023/10/19 08:12:43;;;;;;;4.18;3.22;;;;;;;;;;5003690;28;20121;-58
2023/10/19 08:15:11;;;;;;;3.78;2.70;;;;;;;;;;4989890;28;20113;-57
2023/10/19 08:17:38;;;;;;;4.60;3.10;;;;;;;;;;4990667;28;20069;-58
2023/10/19 08:20:04;;;;;;;4.10;3.15;;;;;;;;;;5003533;28;20038;-58
2023/10/19 08:22:30;;;;;;;5.22;3.03;;;;;;;;;;4999536;28;20662;-58
2023/10/19 08:24:56;;;;;;;4.45;2.92;;;;;;;;;;5002616;28;20184;-57
2023/10/19 08:27:21;;;;;;;3.50;2.80;;;;;;;;;;4991579;28;20057;-57
2023/10/19 08:29:46;;;;;;;5.40;3.60;;;;;;;;;;4992988;28;20026;-57
2023/10/19 08:32:12;;;;;;;4.13;2.78;;;;;;;;;;5003602;28;21045;-58
2023/10/19 08:34:38;;;;;;;4.50;2.72;;;;;;;;;;5005952;28;20459;-61
2023/10/19 08:37:05;;;;;;;4.90;3.13;;;;;;;;;;5007420;28;21390;-58
2023/10/19 08:39:37;;;;;;;3.42;2.85;;;;;;;;;;5010819;28;20045;-58
2023/10/19 08:42:04;;;;;;;4.28;3.10;;;;;;;;;;5011565;28;20042;-58
2023/10/19 08:44:30;;;;;;;4.57;3.10;;;;;;;;;;5013946;28;20433;-58
2023/10/19 08:46:57;;;;;;;3.63;2.78;;;;;;;;;;5001888;28;20038;-58
2023/10/19 08:49:22;;;;;;;4.38;3.20;;;;;;;;;;5011277;28;20034;-58
2023/10/19 08:51:47;;;;;;;4.85;3.08;;;;;;;;;;5008845;28;20373;-58
2023/10/19 08:54:13;;;;;;;4.45;3.08;;;;;;;;;;5007423;28;20117;-57
2023/10/19 08:56:41;;;;;;;3.47;2.80;;;;;;;;;;5007734;28;20042;-57
2023/10/19 08:59:06;;;;;;;4.03;3.00;;;;;;;;;;5006212;28;20437;-58
2023/10/19 09:01:31;;;;;;;3.88;2.83;;;;;;;;;;5002136;28;20030;-58
2023/10/19 09:04:00;;;;;;;4.05;3.03;;;;;;;;;;4999654;28;20057;-58
2023/10/19 09:06:25;;;;;;;3.97;2.72;;;;;;;;;;4999401;28;20058;-58
2023/10/19 09:08:51;;;;;;;3.50;2.57;;;;;;;;;;4997918;28;20107;-59
2023/10/19 09:11:18;;;;;;;4.87;2.90;;;;;;;;;;5004645;28;20338;-58
2023/10/19 09:13:49;;;;;;;4.55;3.05;;;;;;;;;;4999424;28;22425;-58
2023/10/19 09:16:17;;;;;;;4.18;2.78;;;;;;;;;;5015517;28;20047;-58
2023/10/19 09:18:43;;;;;;;3.95;2.78;;;;;;;;;;4998734;28;20540;-58
2023/10/19 09:21:11;;;;;;;4.80;3.22;;;;;;;;;;4999128;28;20018;-58
2023/10/19 09:23:37;;;;;;;5.10;2.90;;;;;;;;;;4997838;28;20018;-57
2023/10/19 09:26:05;;;;;;;4.63;2.97;;;;;;;;;;4998977;28;20061;-57
2023/10/19 09:28:37;;;;;;;4.57;3.10;;;;;;;;;;4998250;28;20041;-57
2023/10/19 09:31:03;;;;;;;5.30;3.00;;;;;;;;;;5000182;28;20065;-58
2023/10/19 09:33:29;;;;;;;4.35;2.60;;;;;;;;;;4998643;28;20818;-58
2023/10/19 09:35:56;;;;;;;4.65;2.70;;;;;;;;;;4994749;28;20488;-58
2023/10/19 09:38:21;;;;;;;4.32;3.10;;;;;;;;;;4992844;28;20050;-58
2023/10/19 09:41:08;;;;;;;4.43;3.03;;;;;;;;;;4993492;28;20038;-56
2023/10/19 09:43:38;;;;;;;4.00;2.70;;;;;;;;;;5004753;28;20049;-57
2023/10/19 09:46:07;;;;;;;5.20;3.10;;;;;;;;;;5006032;28;20042;-56
2023/10/19 09:48:35;;;;;;;4.05;2.97;;;;;;;;;;4991788;28;20407;-57
2023/10/19 09:51:01;;;;;;;3.95;2.97;;;;;;;;;;5005820;28;20407;-57
2023/10/19 09:53:26;;;;;;;4.28;2.97;;;;;;;;;;4990855;28;20069;-57
2023/10/19 09:55:53;;;;;;;3.88;2.75;;;;;;;;;;5007001;28;20404;-58
2023/10/19 09:58:19;;;;;;;4.93;3.00;;;;;;;;;;4991308;28;20676;-57
2023/10/19 10:00:45;;;;;;;4.93;3.05;;;;;;;;;;5005941;28;20095;-58
2023/10/19 10:03:30;;;;;;;4.32;2.90;;;;;;;;;;4990157;28;20403;-57
2023/10/19 10:05:56;;;;;;;5.22;3.25;;;;;;;;;;4992689;28;20030;-57
2023/10/19 10:08:24;;;;;;;4.00;2.97;;;;;;;;;;4991975;28;22413;-57
2023/10/19 10:10:49;;;;;;;5.50;3.45;;;;;;;;;;4992275;28;20034;-57
2023/10/19 10:13:24;;;;;;;3.92;2.75;;;;;;;;;;4991249;28;20643;-57
2023/10/19 10:15:49;;;;;;;4.50;3.13;;;;;;;;;;4990650;28;20137;-58
2023/10/19 10:18:15;;;;;;;4.15;2.78;;;;;;;;;;4992145;28;20058;-57
2023/10/19 10:20:40;;;;;;;3.90;2.58;;;;;;;;;;4989282;28;20069;-57
2023/10/19 10:23:21;;;;;;;5.38;3.05;;;;;;;;;;4991964;28;20080;-58
2023/10/19 10:25:49;;;;;;;4.18;3.00;;;;;;;;;;4990433;28;20152;-57
2023/10/19 10:28:15;;;;;;;4.97;3.20;;;;;;;;;;4990817;28;20035;-58
2023/10/19 10:30:59;;;;;;;5.25;3.03;;;;;;;;;;5007236;28;20048;-58
2023/10/19 10:33:40;;;;;;;4.13;3.03;;;;;;;;;;4991473;28;20123;-58
2023/10/19 10:36:06;;;;;;;5.38;3.00;;;;;;;;;;4991320;28;20034;-57
2023/10/19 10:38:37;;;;;;;4.10;2.95;;;;;;;;;;4990952;28;20474;-59
2023/10/19 10:41:03;;;;;;;4.47;3.20;;;;;;;;;;4989730;28;20030;-58
2023/10/19 10:43:28;;;;;;;3.60;2.45;;;;;;;;;;4989638;28;20477;-58
2023/10/19 10:46:13;;;;;;;4.15;2.65;;;;;;;;;;5005199;28;20075;-58
2023/10/19 10:48:42;;;;;;;4.75;3.00;;;;;;;;;;4990533;28;20045;-56
2023/10/19 10:51:21;;;;;;;3.92;2.65;;;;;;;;;;4991662;28;20072;-58
2023/10/19 10:53:47;;;;;;;4.25;2.72;;;;;;;;;;4990841;28;20042;-58
2023/10/19 10:56:12;;;;;;;3.63;2.38;;;;;;;;;;4989179;28;20033;-58
2023/10/19 10:58:38;;;;;;;3.70;2.90;;;;;;;;;;4992247;28;20044;-58
2023/10/19 11:01:03;;;;;;;4.07;2.53;;;;;;;;;;4996533;28;20037;-58
2023/10/19 11:03:30;;;;;;;4.38;2.88;;;;;;;;;;4999204;28;20048;-58
2023/10/19 11:05:55;;;;;;;3.88;2.60;;;;;;;;;;5002355;28;20104;-58
2023/10/19 11:08:20;;;;;;;3.40;2.40;;;;;;;;;;5000022;28;20030;-58
2023/10/19 11:10:46;;;;;;;4.37;3.07;;;;;;;;;;4997062;28;20071;-59
2023/10/19 11:13:13;;;;;;;3.97;2.80;;;;;;;;;;4992857;28;20832;-58
2023/10/19 11:15:38;;;;;;;4.30;2.88;;;;;;;;;;4996791;28;20139;-57
2023/10/19 11:18:04;;;;;;;4.30;2.38;;;;;;;;;;4998267;28;20457;-58
2023/10/19 11:20:29;;;;;;;4.18;2.88;;;;;;;;;;4998444;28;20477;-58
2023/10/19 11:23:00;;;;;;;4.22;2.90;;;;;;;;;;4997116;28;20606;-58
2023/10/19 11:25:28;;;;;;;4.18;2.55;;;;;;;;;;4997982;28;20087;-58
2023/10/19 11:27:56;;;;;;;3.08;2.60;;;;;;;;;;4997842;28;20417;-58
2023/10/19 11:30:28;;;;;;;4.55;2.70;;;;;;;;;;4995681;28;20422;-57
2023/10/19 11:32:57;;;;;;;3.72;2.72;;;;;;;;;;4996928;28;20045;-58
2023/10/19 11:35:22;;;;;;;4.00;2.70;;;;;;;;;;4996211;28;20049;-58
2023/10/19 11:37:52;;;;;;;4.60;3.05;;;;;;;;;;4995963;28;20283;-58
2023/10/19 11:40:19;;;;;;;3.83;2.50;;;;;;;;;;4997026;28;20041;-58
2023/10/19 11:42:44;;;;;;;3.40;2.60;;;;;;;;;;4997422;28;20433;-58
2023/10/19 11:45:11;;;;;;;3.50;2.40;;;;;;;;;;4995113;28;20037;-58
2023/10/19 11:47:36;;;;;;;3.60;2.50;;;;;;;;;;4997754;28;20054;-58
2023/10/19 11:50:02;;;;;;;4.22;2.80;;;;;;;;;;4997085;28;20033;-58
2023/10/19 11:52:29;;;;;;;2.85;2.33;;;;;;;;;;4997391;28;20092;-57
2023/10/19 11:54:54;;;;;;;5.03;2.83;;;;;;;;;;4997309;28;20140;-58
2023/10/19 11:57:20;;;;;;;5.43;2.63;;;;;;;;;;4990926;28;20042;-57
2023/10/19 11:59:45;;;;;;;3.70;2.63;;;;;;;;;;4996243;28;20030;-58
2023/10/19 12:02:11;;;;;;;4.33;2.53;;;;;;;;;;4998005;28;20281;-57
2023/10/19 12:04:36;;;;;;;4.25;2.67;;;;;;;;;;4996061;28;20276;-57
2023/10/19 12:07:03;;;;;;;3.78;2.35;;;;;;;;;;4998139;28;20033;-59
2023/10/19 12:09:29;;;;;;;4.22;2.38;;;;;;;;;;5001501;28;20119;-58
2023/10/19 12:11:55;;;;;;;3.70;2.58;;;;;;;;;;5001020;28;20030;-59
2023/10/19 12:14:21;;;;;;;6.35;2.45;;;;;;;;;;5001387;28;20052;-57
2023/10/19 12:16:46;;;;;;;4.75;2.20;;;;;;;;;;5001509;28;20495;-57
2023/10/19 12:19:14;;;;;;;4.43;2.63;;;;;;;;;;5001428;28;20038;-57
2023/10/19 12:21:41;;;;;;;4.93;2.70;;;;;;;;;;5000095;28;20084;-57
2023/10/19 12:24:07;;;;;;;2.55;2.35;;;;;;;;;;4999521;28;20116;-58
2023/10/19 12:26:32;;;;;;;2.92;2.45;;;;;;;;;;5001135;28;20548;-58
2023/10/19 12:28:58;;;;;;;3.33;2.00;;;;;;;;;;5018195;28;20129;-57
2023/10/19 12:31:23;;;;;;;3.20;2.30;;;;;;;;;;4998857;28;20045;-57
2023/10/19 12:33:48;;;;;;;4.23;2.40;;;;;;;;;;4997267;28;20319;-58
2023/10/19 12:38:48;;;;;;;3.28;2.33;;;;;;;;;;4998614;28;20450;-58
2023/10/19 12:41:14;;;;;;;3.67;2.35;;;;;;;;;;5001129;28;20464;-58
2023/10/19 12:43:39;;;;;;;2.55;2.10;;;;;;;;;;4999967;28;20034;-58
2023/10/19 12:46:08;;;;;;;4.10;2.60;;;;;;;;;;4999796;28;20028;-58
2023/10/19 12:48:34;;;;;;;3.25;2.25;;;;;;;;;;4999026;28;20038;-59
2023/10/19 12:51:01;;;;;;;5.82;3.60;;;;;;;;;;4999137;28;20116;-57
2023/10/19 12:53:27;;;;;;;6.13;4.30;;;;;;;;;;4999565;28;20045;-57
2023/10/19 12:55:52;;;;;;;5.63;4.32;;;;;;;;;;4999576;28;20045;-58
2023/10/19 12:58:19;;;;;;;4.07;2.60;;;;;;;;;;4998944;28;20845;-58
2023/10/19 13:00:44;;;;;;;5.00;2.67;;;;;;;;;;4998271;28;20155;-57
2023/10/19 13:03:13;;;;;;;3.83;2.60;;;;;;;;;;4999487;28;20034;-57
2023/10/19 13:05:39;;;;;;;3.63;2.35;;;;;;;;;;4996917;28;20076;-58
2023/10/19 13:08:05;;;;;;;5.00;2.58;;;;;;;;;;4999274;28;20030;-58
2023/10/19 13:10:34;;;;;;;3.72;2.53;;;;;;;;;;4998511;28;20032;-59
2023/10/19 13:13:03;;;;;;;4.40;2.90;;;;;;;;;;4999876;28;20112;-58
2023/10/19 13:15:32;;;;;;;3.67;2.40;;;;;;;;;;5000716;28;20022;-59
2023/10/19 13:17:59;;;;;;;3.38;2.38;;;;;;;;;;4998381;28;22047;-58
2023/10/19 13:20:25;;;;;;;3.85;2.55;;;;;;;;;;4999151;28;20014;-58
2023/10/19 13:22:51;;;;;;;3.55;2.67;;;;;;;;;;4999038;28;20410;-59
2023/10/19 13:25:17;;;;;;;3.42;2.40;;;;;;;;;;4999058;28;20014;-58
2023/10/19 13:27:45;;;;;;;3.10;2.65;;;;;;;;;;4997627;28;20034;-58
2023/10/19 13:30:11;;;;;;;5.05;3.20;;;;;;;;;;4998061;28;20107;-58
2023/10/19 13:32:37;;;;;;;4.10;2.95;;;;;;;;;;4997322;28;20046;-58
2023/10/19 13:35:02;;;;;;;3.65;2.55;;;;;;;;;;4999348;28;20078;-57
2023/10/19 13:37:28;;;;;;;4.20;2.65;;;;;;;;;;5001048;28;20041;-57
2023/10/19 13:39:54;;;;;;;3.45;2.65;;;;;;;;;;4999344;28;20176;-58
2023/10/19 13:42:19;;;;;;;4.30;2.83;;;;;;;;;;4998963;28;20046;-58
2023/10/19 13:44:45;;;;;;;4.90;2.97;;;;;;;;;;4997583;28;20041;-58
2023/10/19 13:47:11;;;;;;;4.30;2.90;;;;;;;;;;4997049;28;20099;-58
2023/10/19 13:49:37;;;;;;;4.15;2.92;;;;;;;;;;5000239;28;20287;-58
2023/10/19 13:52:04;;;;;;;4.88;3.22;;;;;;;;;;5014167;28;20105;-62
2023/10/19 13:54:29;;;;;;;4.75;2.75;;;;;;;;;;5001489;28;20607;-61
2023/10/19 13:56:55;;;;;;;3.90;2.80;;;;;;;;;;4974428;28;20121;-60
2023/10/19 13:59:20;;;;;;;4.32;3.20;;;;;;;;;;4991499;28;20447;-58
2023/10/19 14:01:45;;;;;;;4.32;2.78;;;;;;;;;;5001249;28;20038;-59
2023/10/19 14:04:11;;;;;;;4.45;2.92;;;;;;;;;;5006214;28;20062;-59
2023/10/19 14:06:37;;;;;;;4.05;3.10;;;;;;;;;;5006329;28;20113;-59
2023/10/19 14:09:04;;;;;;;5.25;3.30;;;;;;;;;;5006868;28;20065;-63
2023/10/19 14:11:30;;;;;;;4.85;3.15;;;;;;;;;;4998049;28;20037;-61
2023/10/19 14:13:55;;;;;;;5.05;3.05;;;;;;;;;;4996407;28;20133;-61
2023/10/19 14:16:22;;;;;;;4.80;3.53;;;;;;;;;;4987182;28;20154;-61
2023/10/19 14:18:48;;;;;;;4.35;3.38;;;;;;;;;;5004318;28;20044;-61
2023/10/19 14:21:13;;;;;;;6.15;3.70;;;;;;;;;;5006459;28;20457;-61
2023/10/19 14:23:40;;;;;;;4.82;3.72;;;;;;;;;;5006777;28;20433;-61
2023/10/19 14:26:06;;;;;;;6.38;3.60;;;;;;;;;;5006646;28;20060;-61
2023/10/19 14:28:31;;;;;;;6.70;3.50;;;;;;;;;;5007803;28;20030;-61
2023/10/19 14:30:56;;;;;;;4.95;3.80;;;;;;;;;;4990109;28;20415;-61
2023/10/19 14:33:22;;;;;;;5.43;3.58;;;;;;;;;;5002325;28;20475;-71
2023/10/19 14:35:47;;;;;;;5.18;3.50;;;;;;;;;;4996134;28;20057;-57
2023/10/19 14:38:14;;;;;;;5.30;3.78;;;;;;;;;;5001964;28;20065;-57
2023/10/19 14:40:44;;;;;;;7.60;3.63;;;;;;;;;;4995288;28;20037;-57
2023/10/19 14:43:10;;;;;;;6.53;4.03;;;;;;;;;;5005211;28;20161;-58
2023/10/19 14:45:35;;;;;;;6.70;3.60;;;;;;;;;;5020151;28;20505;-57
2023/10/19 14:48:04;;;;;;;4.40;3.83;;;;;;;;;;5005140;28;20563;-57
2023/10/19 14:50:29;;;;;;;4.90;3.50;;;;;;;;;;5005598;28;20359;-57
2023/10/19 14:52:54;;;;;;;6.63;3.42;;;;;;;;;;5005664;28;20117;-57
2023/10/19 14:55:20;;;;;;;5.70;3.92;;;;;;;;;;5005648;28;20548;-57
2023/10/19 14:57:48;;;;;;;5.35;3.15;;;;;;;;;;5006434;28;20037;-58
2023/10/19 15:00:29;;;;;;;5.25;3.95;;;;;;;;;;5003869;28;20153;-57